ZBTJ/TSN METAR and TAF weather

Enter ICAO airport designator
Station Type Date Time Source
ZBTJ METAR 2019/06/19 02:30 UTC NOAA

ZBTJ 190230Z 07003MPS 030V110 3500 +TSRA BR BKN012 BKN040CB 23/20 Q1007 NOSIG


Station Type Date Time Source
ZBTJ Decoded METAR 2019/06/19 02:30 UTC NOAA

Tianjin / Zhangguizhu, China (ZBTJ) 39-11N 117-21E
Jun 18, 2019 - 10:30 PM EDT / 2019.06.19 0230 UTC
Wind: from the ENE (070 degrees) at 7 MPH (6 KT) (direction variable):0
Visibility: 2 mile(s):0
Sky conditions: mostly cloudy
Weather: heavy rain with thunder; mist; Cumulonimbus clouds observed
Temperature: 73 F (23 C)
Dew Point: 68 F (20 C)
Relative Humidity: 83%
Pressure (altimeter): 29.74 in. Hg (1007 hPa)
ob: ZBTJ 190230Z 07003MPS 030V110 3500 +TSRA BR BKN012 BKN040CB 23/20 Q1007 NOSIG
cycle: 2

Station Type Date Time Source
ZBTJ TAF 2019/06/19 00:46 UTC NOAA

TAF
AMD ZBTJ 190135Z 1900/1924 09004MPS 5000 BR BKN040 TX28/1907Z TN20/1921Z
TEMPO 1901/1907 TSRA FEW030CB BKN040

Example: see airport list